sensor_id;sensor_type;location;lat;lon;timestamp;pressure;altitude;pressure_sealevel;temperature
20867;BMP280;10593;48.398;10.698;2022-08-19T00:01:50;95691.00;;;27.68
20867;BMP280;10593;48.398;10.698;2022-08-19T00:04:21;95695.44;;;27.68
20867;BMP280;10593;48.398;10.698;2022-08-19T00:06:47;95704.50;;;27.65
20867;BMP280;10593;48.398;10.698;2022-08-19T00:09:16;95706.31;;;27.65
20867;BMP280;10593;48.398;10.698;2022-08-19T00:11:43;95708.94;;;27.65
20867;BMP280;10593;48.398;10.698;2022-08-19T00:14:12;95697.69;;;27.63
20867;BMP280;10593;48.398;10.698;2022-08-19T00:16:40;95696.03;;;27.62
20867;BMP280;10593;48.398;10.698;2022-08-19T00:19:07;95698.00;;;27.60
20867;BMP280;10593;48.398;10.698;2022-08-19T00:21:34;95694.50;;;27.59
20867;BMP280;10593;48.398;10.698;2022-08-19T00:24:09;95692.84;;;27.58
20867;BMP280;10593;48.398;10.698;2022-08-19T00:26:36;95695.66;;;27.57
20867;BMP280;10593;48.398;10.698;2022-08-19T00:29:04;95695.91;;;27.54
20867;BMP280;10593;48.398;10.698;2022-08-19T00:31:30;95695.22;;;27.52
20867;BMP280;10593;48.398;10.698;2022-08-19T00:33:57;95694.53;;;27.50
20867;BMP280;10593;48.398;10.698;2022-08-19T00:36:22;95693.84;;;27.48
20867;BMP280;10593;48.398;10.698;2022-08-19T00:38:49;95698.28;;;27.47
20867;BMP280;10593;48.398;10.698;2022-08-19T00:41:19;95705.38;;;27.47
20867;BMP280;10593;48.398;10.698;2022-08-19T00:44:09;95709.81;;;27.46
20867;BMP280;10593;48.398;10.698;2022-08-19T00:46:39;95706.50;;;27.44
20867;BMP280;10593;48.398;10.698;2022-08-19T00:49:14;95699.69;;;27.42
20867;BMP280;10593;48.398;10.698;2022-08-19T00:51:42;95694.41;;;27.42
20867;BMP280;10593;48.398;10.698;2022-08-19T00:54:10;95684.81;;;27.41
20867;BMP280;10593;48.398;10.698;2022-08-19T00:56:36;95681.38;;;27.40
20867;BMP280;10593;48.398;10.698;2022-08-19T00:59:04;95684.81;;;27.41
20867;BMP280;10593;48.398;10.698;2022-08-19T01:01:37;95678.84;;;27.39
20867;BMP280;10593;48.398;10.698;2022-08-19T01:04:04;95689.41;;;27.39
20867;BMP280;10593;48.398;10.698;2022-08-19T01:06:31;95677.19;;;27.38
20867;BMP280;10593;48.398;10.698;2022-08-19T01:08:59;95693.19;;;27.36
20867;BMP280;10593;48.398;10.698;2022-08-19T01:11:27;95688.84;;;27.35
20867;BMP280;10593;48.398;10.698;2022-08-19T01:13:54;95688.03;;;27.35
20867;BMP280;10593;48.398;10.698;2022-08-19T01:16:24;95693.31;;;27.35
20867;BMP280;10593;48.398;10.698;2022-08-19T01:18:50;95685.53;;;27.33
20867;BMP280;10593;48.398;10.698;2022-08-19T01:21:42;95689.16;;;27.32
20867;BMP280;10593;48.398;10.698;2022-08-19T01:24:10;95698.03;;;27.31
20867;BMP280;10593;48.398;10.698;2022-08-19T01:26:44;95690.28;;;27.30
20867;BMP280;10593;48.398;10.698;2022-08-19T01:29:10;95685.13;;;27.28
20867;BMP280;10593;48.398;10.698;2022-08-19T01:31:36;95684.28;;;27.28
20867;BMP280;10593;48.398;10.698;2022-08-19T01:34:05;95687.09;;;27.26
20867;BMP280;10593;48.398;10.698;2022-08-19T01:36:42;95694.16;;;27.26
20867;BMP280;10593;48.398;10.698;2022-08-19T01:39:24;95682.91;;;27.24
20867;BMP280;10593;48.398;10.698;2022-08-19T01:41:51;95691.81;;;27.23
20867;BMP280;10593;48.398;10.698;2022-08-19T01:44:20;95698.91;;;27.22
20867;BMP280;10593;48.398;10.698;2022-08-19T01:46:51;95694.56;;;27.21
20867;BMP280;10593;48.398;10.698;2022-08-19T01:49:21;95695.56;;;27.20
20867;BMP280;10593;48.398;10.698;2022-08-19T01:51:48;95690.44;;;27.19
20867;BMP280;10593;48.398;10.698;2022-08-19T01:54:16;95686.25;;;27.16
20867;BMP280;10593;48.398;10.698;2022-08-19T01:56:42;95685.44;;;27.16
20867;BMP280;10593;48.398;10.698;2022-08-19T01:59:17;95689.88;;;27.15
20867;BMP280;10593;48.398;10.698;2022-08-19T02:01:44;95690.00;;;27.14
20867;BMP280;10593;48.398;10.698;2022-08-19T02:04:10;95696.25;;;27.13
20867;BMP280;10593;48.398;10.698;2022-08-19T02:06:37;95708.63;;;27.12
20867;BMP280;10593;48.398;10.698;2022-08-19T02:09:05;95705.28;;;27.10
20867;BMP280;10593;48.398;10.698;2022-08-19T02:11:35;95700.13;;;27.09
20867;BMP280;10593;48.398;10.698;2022-08-19T02:14:05;95699.28;;;27.08
20867;BMP280;10593;48.398;10.698;2022-08-19T02:16:32;95688.03;;;27.06
20867;BMP280;10593;48.398;10.698;2022-08-19T02:18:58;95687.22;;;27.06
20867;BMP280;10593;48.398;10.698;2022-08-19T02:21:28;95693.47;;;27.05
20867;BMP280;10593;48.398;10.698;2022-08-19T02:23:54;95697.22;;;27.02
20867;BMP280;10593;48.398;10.698;2022-08-19T02:26:21;95702.47;;;27.02
20867;BMP280;10593;48.398;10.698;2022-08-19T02:28:47;95702.59;;;27.01
20867;BMP280;10593;48.398;10.698;2022-08-19T02:31:18;95692.22;;;26.99
20867;BMP280;10593;48.398;10.698;2022-08-19T02:33:45;95697.63;;;26.98
20867;BMP280;10593;48.398;10.698;2022-08-19T02:36:13;95688.03;;;26.97
20867;BMP280;10593;48.398;10.698;2022-08-19T02:38:40;95697.78;;;26.96
20867;BMP280;10593;48.398;10.698;2022-08-19T02:41:14;95696.13;;;26.95
20867;BMP280;10593;48.398;10.698;2022-08-19T02:43:40;95686.66;;;26.93
20867;BMP280;10593;48.398;10.698;2022-08-19T02:46:24;95685.00;;;26.92
20867;BMP280;10593;48.398;10.698;2022-08-19T02:48:53;95690.41;;;26.90
20867;BMP280;10593;48.398;10.698;2022-08-19T02:51:26;95701.94;;;26.89
20867;BMP280;10593;48.398;10.698;2022-08-19T02:53:52;95695.13;;;26.87
20867;BMP280;10593;48.398;10.698;2022-08-19T02:56:20;95701.38;;;26.86
20867;BMP280;10593;48.398;10.698;2022-08-19T02:58:46;95687.34;;;26.85
20867;BMP280;10593;48.398;10.698;2022-08-19T03:03:51;95701.53;;;26.84
20867;BMP280;10593;48.398;10.698;2022-08-19T03:06:17;95706.91;;;26.83
20867;BMP280;10593;48.398;10.698;2022-08-19T03:08:45;95703.47;;;26.82
20867;BMP280;10593;48.398;10.698;2022-08-19T03:11:22;95697.34;;;26.82
20867;BMP280;10593;48.398;10.698;2022-08-19T03:13:48;95700.97;;;26.81
20867;BMP280;10593;48.398;10.698;2022-08-19T03:16:26;95701.94;;;26.80
20867;BMP280;10593;48.398;10.698;2022-08-19T03:18:56;95696.94;;;26.77
20867;BMP280;10593;48.398;10.698;2022-08-19T03:21:26;95691.66;;;26.77
20867;BMP280;10593;48.398;10.698;2022-08-19T03:23:59;95691.66;;;26.77
20867;BMP280;10593;48.398;10.698;2022-08-19T03:26:26;95689.16;;;26.75
20867;BMP280;10593;48.398;10.698;2022-08-19T03:28:52;95687.50;;;26.74
20867;BMP280;10593;48.398;10.698;2022-08-19T03:31:21;95685.66;;;26.75
20867;BMP280;10593;48.398;10.698;2022-08-19T03:33:49;95691.91;;;26.74
20867;BMP280;10593;48.398;10.698;2022-08-19T03:36:21;95691.91;;;26.74
20867;BMP280;10593;48.398;10.698;2022-08-19T03:38:55;95692.88;;;26.73
20867;BMP280;10593;48.398;10.698;2022-08-19T03:41:36;95695.69;;;26.71
20867;BMP280;10593;48.398;10.698;2022-08-19T03:44:03;95707.19;;;26.70
20867;BMP280;10593;48.398;10.698;2022-08-19T03:46:32;95701.94;;;26.70
20867;BMP280;10593;48.398;10.698;2022-08-19T03:49:01;95713.44;;;26.69
20867;BMP280;10593;48.398;10.698;2022-08-19T03:51:37;95692.47;;;26.68
20867;BMP280;10593;48.398;10.698;2022-08-19T03:54:07;95710.94;;;26.68
20867;BMP280;10593;48.398;10.698;2022-08-19T03:56:36;95707.44;;;26.67
20867;BMP280;10593;48.398;10.698;2022-08-19T03:59:05;95694.44;;;26.66
20867;BMP280;10593;48.398;10.698;2022-08-19T04:01:30;95701.50;;;26.65
20867;BMP280;10593;48.398;10.698;2022-08-19T04:03:58;95701.50;;;26.65
20867;BMP280;10593;48.398;10.698;2022-08-19T04:06:30;95701.66;;;26.64
20867;BMP280;10593;48.398;10.698;2022-08-19T04:08:59;95702.63;;;26.63
20867;BMP280;10593;48.398;10.698;2022-08-19T04:12:02;95701.09;;;26.60
20867;BMP280;10593;48.398;10.698;2022-08-19T04:14:25;95702.88;;;26.60
20867;BMP280;10593;48.398;10.698;2022-08-19T04:16:52;95697.75;;;26.58
20867;BMP280;10593;48.398;10.698;2022-08-19T04:19:19;95694.25;;;26.58
20867;BMP280;10593;48.398;10.698;2022-08-19T04:21:49;95696.09;;;26.57
20867;BMP280;10593;48.398;10.698;2022-08-19T04:24:16;95691.91;;;26.55
20867;BMP280;10593;48.398;10.698;2022-08-19T04:26:42;95688.31;;;26.56
20867;BMP280;10593;48.398;10.698;2022-08-19T04:29:16;95675.25;;;26.54
20867;BMP280;10593;48.398;10.698;2022-08-19T04:31:45;95682.47;;;26.52
20867;BMP280;10593;48.398;10.698;2022-08-19T04:34:14;95670.25;;;26.51
20867;BMP280;10593;48.398;10.698;2022-08-19T04:36:43;95686.06;;;26.51
20867;BMP280;10593;48.398;10.698;2022-08-19T04:39:18;95681.78;;;26.50
20867;BMP280;10593;48.398;10.698;2022-08-19T04:41:45;95686.22;;;26.50
20867;BMP280;10593;48.398;10.698;2022-08-19T04:44:35;95694.22;;;26.48
20867;BMP280;10593;48.398;10.698;2022-08-19T04:47:02;95704.06;;;26.46
20867;BMP280;10593;48.398;10.698;2022-08-19T04:49:30;95713.78;;;26.46
20867;BMP280;10593;48.398;10.698;2022-08-19T04:51:56;95717.38;;;26.45
20867;BMP280;10593;48.398;10.698;2022-08-19T04:54:25;95723.50;;;26.45
20867;BMP280;10593;48.398;10.698;2022-08-19T04:56:52;95730.56;;;26.45
20867;BMP280;10593;48.398;10.698;2022-08-19T04:59:19;95734.16;;;26.44
20867;BMP280;10593;48.398;10.698;2022-08-19T05:01:46;95736.81;;;26.44
20867;BMP280;10593;48.398;10.698;2022-08-19T05:04:19;95729.75;;;26.44
20867;BMP280;10593;48.398;10.698;2022-08-19T05:06:48;95736.81;;;26.44
20867;BMP280;10593;48.398;10.698;2022-08-19T05:09:17;95735.97;;;26.43
20867;BMP280;10593;48.398;10.698;2022-08-19T05:11:43;95745.69;;;26.43
20867;BMP280;10593;48.398;10.698;2022-08-19T05:14:11;95753.59;;;26.43
20867;BMP280;10593;48.398;10.698;2022-08-19T05:16:38;95751.91;;;26.42
20867;BMP280;10593;48.398;10.698;2022-08-19T05:19:04;95757.19;;;26.42
20867;BMP280;10593;48.398;10.698;2022-08-19T05:21:48;95750.25;;;26.41
20867;BMP280;10593;48.398;10.698;2022-08-19T05:24:33;95752.19;;;26.39
20867;BMP280;10593;48.398;10.698;2022-08-19T05:27:01;95756.50;;;26.40
20867;BMP280;10593;48.398;10.698;2022-08-19T05:29:29;95761.75;;;26.40
20867;BMP280;10593;48.398;10.698;2022-08-19T05:31:57;95752.88;;;26.41
20867;BMP280;10593;48.398;10.698;2022-08-19T05:34:25;95748.59;;;26.40
20867;BMP280;10593;48.398;10.698;2022-08-19T05:36:56;95740.69;;;26.40
20867;BMP280;10593;48.398;10.698;2022-08-19T05:39:25;95745.94;;;26.40
20867;BMP280;10593;48.398;10.698;2022-08-19T05:41:59;95737.88;;;26.41
20867;BMP280;10593;48.398;10.698;2022-08-19T05:44:28;95730.97;;;26.40
20867;BMP280;10593;48.398;10.698;2022-08-19T05:46:59;95732.78;;;26.40
20867;BMP280;10593;48.398;10.698;2022-08-19T05:49:26;95731.81;;;26.41
20867;BMP280;10593;48.398;10.698;2022-08-19T05:51:53;95743.16;;;26.41
20867;BMP280;10593;48.398;10.698;2022-08-19T05:54:21;95735.41;;;26.40
20867;BMP280;10593;48.398;10.698;2022-08-19T05:56:50;95733.59;;;26.40
20867;BMP280;10593;48.398;10.698;2022-08-19T05:59:18;95731.81;;;26.41
20867;BMP280;10593;48.398;10.698;2022-08-19T06:01:50;95737.88;;;26.41
20867;BMP280;10593;48.398;10.698;2022-08-19T06:04:19;95733.47;;;26.42
20867;BMP280;10593;48.398;10.698;2022-08-19T06:06:49;95732.63;;;26.41
20867;BMP280;10593;48.398;10.698;2022-08-19T06:09:17;95731.81;;;26.41
20867;BMP280;10593;48.398;10.698;2022-08-19T06:11:48;95741.38;;;26.42
20867;BMP280;10593;48.398;10.698;2022-08-19T06:14:19;95741.38;;;26.42
20867;BMP280;10593;48.398;10.698;2022-08-19T06:16:46;95744.00;;;26.42
20867;BMP280;10593;48.398;10.698;2022-08-19T06:19:16;95744.00;;;26.42
20867;BMP280;10593;48.398;10.698;2022-08-19T06:21:46;95744.00;;;26.42
20867;BMP280;10593;48.398;10.698;2022-08-19T06:24:15;95744.00;;;26.42
20867;BMP280;10593;48.398;10.698;2022-08-19T06:26:46;95739.59;;;26.42
20867;BMP280;10593;48.398;10.698;2022-08-19T06:29:15;95744.00;;;26.42
20867;BMP280;10593;48.398;10.698;2022-08-19T06:31:45;95751.91;;;26.42
20867;BMP280;10593;48.398;10.698;2022-08-19T06:34:12;95749.28;;;26.42
20867;BMP280;10593;48.398;10.698;2022-08-19T06:36:46;95757.19;;;26.42
20867;BMP280;10593;48.398;10.698;2022-08-19T06:39:25;95757.19;;;26.42
20867;BMP280;10593;48.398;10.698;2022-08-19T06:41:55;95768.69;;;26.41
20867;BMP280;10593;48.398;10.698;2022-08-19T06:44:25;95761.59;;;26.41
20867;BMP280;10593;48.398;10.698;2022-08-19T06:46:52;95766.06;;;26.41
20867;BMP280;10593;48.398;10.698;2022-08-19T06:49:18;95770.50;;;26.40
20867;BMP280;10593;48.398;10.698;2022-08-19T06:51:47;95768.69;;;26.41
20867;BMP280;10593;48.398;10.698;2022-08-19T06:54:18;95769.66;;;26.40
20867;BMP280;10593;48.398;10.698;2022-08-19T06:56:44;95773.97;;;26.41
20867;BMP280;10593;48.398;10.698;2022-08-19T06:59:19;95777.44;;;26.41
20867;BMP280;10593;48.398;10.698;2022-08-19T07:01:50;95783.66;;;26.40
20867;BMP280;10593;48.398;10.698;2022-08-19T07:04:21;95775.75;;;26.40
20867;BMP280;10593;48.398;10.698;2022-08-19T07:06:48;95771.47;;;26.39
20867;BMP280;10593;48.398;10.698;2022-08-19T07:09:17;95775.75;;;26.40
20867;BMP280;10593;48.398;10.698;2022-08-19T07:11:49;95773.13;;;26.40
20867;BMP280;10593;48.398;10.698;2022-08-19T07:14:17;95770.50;;;26.40
20867;BMP280;10593;48.398;10.698;2022-08-19T07:16:45;95767.03;;;26.40
20867;BMP280;10593;48.398;10.698;2022-08-19T07:19:12;95762.59;;;26.40
20867;BMP280;10593;48.398;10.698;2022-08-19T07:21:38;95762.59;;;26.40
20867;BMP280;10593;48.398;10.698;2022-08-19T07:24:04;95769.66;;;26.40
20867;BMP280;10593;48.398;10.698;2022-08-19T07:26:38;95763.44;;;26.41
20867;BMP280;10593;48.398;10.698;2022-08-19T07:29:04;95765.22;;;26.40
20867;BMP280;10593;48.398;10.698;2022-08-19T07:31:30;95763.56;;;26.39
20867;BMP280;10593;48.398;10.698;2022-08-19T07:33:57;95762.72;;;26.39
20867;BMP280;10593;48.398;10.698;2022-08-19T07:36:26;95758.28;;;26.39
20867;BMP280;10593;48.398;10.698;2022-08-19T07:38:56;95764.41;;;26.40
20867;BMP280;10593;48.398;10.698;2022-08-19T07:41:26;95752.19;;;26.39
20867;BMP280;10593;48.398;10.698;2022-08-19T07:43:55;95763.56;;;26.39
20867;BMP280;10593;48.398;10.698;2022-08-19T07:46:21;95761.06;;;26.38
20867;BMP280;10593;48.398;10.698;2022-08-19T07:48:49;95768.97;;;26.38
20867;BMP280;10593;48.398;10.698;2022-08-19T07:51:20;95777.84;;;26.37
20867;BMP280;10593;48.398;10.698;2022-08-19T07:53:48;95779.53;;;26.38
20867;BMP280;10593;48.398;10.698;2022-08-19T07:56:17;95778.66;;;26.37
20867;BMP280;10593;48.398;10.698;2022-08-19T07:58:46;95770.91;;;26.36
20867;BMP280;10593;48.398;10.698;2022-08-19T08:01:21;95763.72;;;26.38
20867;BMP280;10593;48.398;10.698;2022-08-19T08:03:49;95761.19;;;26.36
20867;BMP280;10593;48.398;10.698;2022-08-19T08:06:33;95757.00;;;26.34
20867;BMP280;10593;48.398;10.698;2022-08-19T08:09:25;95767.56;;;26.34
20867;BMP280;10593;48.398;10.698;2022-08-19T08:11:59;95776.31;;;26.34
20867;BMP280;10593;48.398;10.698;2022-08-19T08:14:33;95774.66;;;26.33
20867;BMP280;10593;48.398;10.698;2022-08-19T08:17:02;95762.28;;;26.34
20867;BMP280;10593;48.398;10.698;2022-08-19T08:19:28;95757.00;;;26.34
20867;BMP280;10593;48.398;10.698;2022-08-19T08:21:58;95763.13;;;26.34
20867;BMP280;10593;48.398;10.698;2022-08-19T08:24:27;95758.72;;;26.35
20867;BMP280;10593;48.398;10.698;2022-08-19T08:26:53;95767.44;;;26.35
20867;BMP280;10593;48.398;10.698;2022-08-19T08:29:19;95763.97;;;26.35
20867;BMP280;10593;48.398;10.698;2022-08-19T08:31:46;95766.47;;;26.36
20867;BMP280;10593;48.398;10.698;2022-08-19T08:34:13;95771.72;;;26.36
20867;BMP280;10593;48.398;10.698;2022-08-19T08:36:43;95763.97;;;26.35
20867;BMP280;10593;48.398;10.698;2022-08-19T08:39:16;95763.81;;;26.36
20867;BMP280;10593;48.398;10.698;2022-08-19T08:42:08;95767.31;;;26.37
20867;BMP280;10593;48.398;10.698;2022-08-19T08:47:20;95780.59;;;26.35
20867;BMP280;10593;48.398;10.698;2022-08-19T08:49:55;95775.47;;;26.34
20867;BMP280;10593;48.398;10.698;2022-08-19T08:52:36;95770.19;;;26.34
20867;BMP280;10593;48.398;10.698;2022-08-19T08:55:13;95772.00;;;26.33
20867;BMP280;10593;48.398;10.698;2022-08-19T09:00:43;95775.72;;;26.31
20867;BMP280;10593;48.398;10.698;2022-08-19T09:03:27;95783.63;;;26.31
20867;BMP280;10593;48.398;10.698;2022-08-19T09:06:14;95777.56;;;26.30
20867;BMP280;10593;48.398;10.698;2022-08-19T09:11:39;95777.56;;;26.30
20867;BMP280;10593;48.398;10.698;2022-08-19T09:14:34;95788.34;;;26.27
20867;BMP280;10593;48.398;10.698;2022-08-19T09:17:00;95786.53;;;26.28
20867;BMP280;10593;48.398;10.698;2022-08-19T09:19:29;95790.84;;;26.29
20867;BMP280;10593;48.398;10.698;2022-08-19T09:21:56;95787.25;;;26.30
20867;BMP280;10593;48.398;10.698;2022-08-19T09:24:21;95793.38;;;26.30
20867;BMP280;10593;48.398;10.698;2022-08-19T09:26:47;95791.69;;;26.29
20867;BMP280;10593;48.398;10.698;2022-08-19T09:29:13;95792.50;;;26.30
20867;BMP280;10593;48.398;10.698;2022-08-19T09:31:39;95791.69;;;26.29
20867;BMP280;10593;48.398;10.698;2022-08-19T09:34:05;95795.16;;;26.30
20867;BMP280;10593;48.398;10.698;2022-08-19T09:36:32;95795.16;;;26.30
20867;BMP280;10593;48.398;10.698;2022-08-19T09:38:59;95792.50;;;26.30
20867;BMP280;10593;48.398;10.698;2022-08-19T09:41:27;95792.50;;;26.30
20867;BMP280;10593;48.398;10.698;2022-08-19T09:43:55;95797.78;;;26.30
20867;BMP280;10593;48.398;10.698;2022-08-19T09:46:25;95796.81;;;26.31
20867;BMP280;10593;48.398;10.698;2022-08-19T09:48:52;95795.03;;;26.31
20867;BMP280;10593;48.398;10.698;2022-08-19T09:51:26;95798.47;;;26.32
20867;BMP280;10593;48.398;10.698;2022-08-19T09:53:53;95804.72;;;26.31
20867;BMP280;10593;48.398;10.698;2022-08-19T09:56:24;95799.44;;;26.31
20867;BMP280;10593;48.398;10.698;2022-08-19T09:58:50;95806.38;;;26.32
20867;BMP280;10593;48.398;10.698;2022-08-19T10:01:24;95811.53;;;26.33
20867;BMP280;10593;48.398;10.698;2022-08-19T10:03:53;95812.34;;;26.34
20867;BMP280;10593;48.398;10.698;2022-08-19T10:06:22;95811.53;;;26.33
20867;BMP280;10593;48.398;10.698;2022-08-19T10:08:50;95815.00;;;26.34
20867;BMP280;10593;48.398;10.698;2022-08-19T10:11:19;95805.41;;;26.33
20867;BMP280;10593;48.398;10.698;2022-08-19T10:13:46;95815.94;;;26.33
20867;BMP280;10593;48.398;10.698;2022-08-19T10:16:18;95810.56;;;26.34
20867;BMP280;10593;48.398;10.698;2022-08-19T10:18:45;95816.81;;;26.33
20867;BMP280;10593;48.398;10.698;2022-08-19T10:21:22;95808.06;;;26.33
20867;BMP280;10593;48.398;10.698;2022-08-19T10:23:53;95816.81;;;26.33
20867;BMP280;10593;48.398;10.698;2022-08-19T10:26:23;95819.44;;;26.33
20867;BMP280;10593;48.398;10.698;2022-08-19T10:28:49;95821.22;;;26.33
20867;BMP280;10593;48.398;10.698;2022-08-19T10:31:26;95819.44;;;26.33
20867;BMP280;10593;48.398;10.698;2022-08-19T10:33:52;95813.31;;;26.33
20867;BMP280;10593;48.398;10.698;2022-08-19T10:36:27;95814.16;;;26.33
20867;BMP280;10593;48.398;10.698;2022-08-19T10:38:57;95815.94;;;26.33
20867;BMP280;10593;48.398;10.698;2022-08-19T10:41:28;95810.69;;;26.33
20867;BMP280;10593;48.398;10.698;2022-08-19T10:43:57;95816.09;;;26.31
20867;BMP280;10593;48.398;10.698;2022-08-19T10:46:26;95816.94;;;26.32
20867;BMP280;10593;48.398;10.698;2022-08-19T10:48:53;95809.03;;;26.32
20867;BMP280;10593;48.398;10.698;2022-08-19T10:51:20;95810.00;;;26.31
20867;BMP280;10593;48.398;10.698;2022-08-19T10:54:04;95815.25;;;26.31
20867;BMP280;10593;48.398;10.698;2022-08-19T10:56:33;95817.91;;;26.31
20867;BMP280;10593;48.398;10.698;2022-08-19T10:59:29;95818.88;;;26.30
20867;BMP280;10593;48.398;10.698;2022-08-19T11:02:00;95828.44;;;26.31
20867;BMP280;10593;48.398;10.698;2022-08-19T11:04:27;95819.72;;;26.30
20867;BMP280;10593;48.398;10.698;2022-08-19T11:06:53;95820.53;;;26.31
20867;BMP280;10593;48.398;10.698;2022-08-19T11:09:24;95815.25;;;26.31
20867;BMP280;10593;48.398;10.698;2022-08-19T11:11:51;95810.97;;;26.30
20867;BMP280;10593;48.398;10.698;2022-08-19T11:14:20;95819.72;;;26.30
20867;BMP280;10593;48.398;10.698;2022-08-19T11:16:48;95826.75;;;26.30
20867;BMP280;10593;48.398;10.698;2022-08-19T11:19:15;95828.59;;;26.29
20867;BMP280;10593;48.398;10.698;2022-08-19T11:21:47;95833.84;;;26.29
20867;BMP280;10593;48.398;10.698;2022-08-19T11:24:24;95839.94;;;26.30
20867;BMP280;10593;48.398;10.698;2022-08-19T11:26:53;95835.63;;;26.29
20867;BMP280;10593;48.398;10.698;2022-08-19T11:29:22;95842.72;;;26.28
20867;BMP280;10593;48.398;10.698;2022-08-19T11:31:53;95850.63;;;26.28
20867;BMP280;10593;48.398;10.698;2022-08-19T11:34:23;95848.00;;;26.28
20867;BMP280;10593;48.398;10.698;2022-08-19T11:36:51;95850.75;;;26.27
20867;BMP280;10593;48.398;10.698;2022-08-19T11:39:21;95856.03;;;26.27
20867;BMP280;10593;48.398;10.698;2022-08-19T11:41:48;95848.38;;;26.24
20867;BMP280;10593;48.398;10.698;2022-08-19T11:44:14;95851.84;;;26.24
20867;BMP280;10593;48.398;10.698;2022-08-19T11:46:42;95844.91;;;26.23
20867;BMP280;10593;48.398;10.698;2022-08-19T11:49:15;95849.34;;;26.23
20867;BMP280;10593;48.398;10.698;2022-08-19T11:51:42;95852.09;;;26.21
20867;BMP280;10593;48.398;10.698;2022-08-19T11:54:09;95856.53;;;26.21
20867;BMP280;10593;48.398;10.698;2022-08-19T11:56:37;95857.50;;;26.20
20867;BMP280;10593;48.398;10.698;2022-08-19T11:59:03;95854.88;;;26.20
20867;BMP280;10593;48.398;10.698;2022-08-19T12:01:30;95848.78;;;26.19
20867;BMP280;10593;48.398;10.698;2022-08-19T12:03:57;95845.28;;;26.19
20867;BMP280;10593;48.398;10.698;2022-08-19T12:06:27;95835.72;;;26.18
20867;BMP280;10593;48.398;10.698;2022-08-19T12:08:59;95833.09;;;26.18
20867;BMP280;10593;48.398;10.698;2022-08-19T12:11:25;95842.94;;;26.16
20867;BMP280;10593;48.398;10.698;2022-08-19T12:13:53;95837.66;;;26.16
20867;BMP280;10593;48.398;10.698;2022-08-19T12:16:26;95830.59;;;26.16
20867;BMP280;10593;48.398;10.698;2022-08-19T12:18:53;95835.03;;;26.16
20867;BMP280;10593;48.398;10.698;2022-08-19T12:21:25;95844.75;;;26.15
20867;BMP280;10593;48.398;10.698;2022-08-19T12:23:56;95846.78;;;26.12
20867;BMP280;10593;48.398;10.698;2022-08-19T12:26:24;95852.06;;;26.12
20867;BMP280;10593;48.398;10.698;2022-08-19T12:28:50;95845.94;;;26.11
20867;BMP280;10593;48.398;10.698;2022-08-19T12:31:16;95845.13;;;26.11
20867;BMP280;10593;48.398;10.698;2022-08-19T12:33:42;95832.06;;;26.09
20867;BMP280;10593;48.398;10.698;2022-08-19T12:36:14;95828.63;;;26.09
20867;BMP280;10593;48.398;10.698;2022-08-19T12:38:41;95829.59;;;26.08
20867;BMP280;10593;48.398;10.698;2022-08-19T12:41:12;95826.09;;;26.07
20867;BMP280;10593;48.398;10.698;2022-08-19T12:43:37;95829.72;;;26.06
20867;BMP280;10593;48.398;10.698;2022-08-19T12:46:05;95831.50;;;26.06
20867;BMP280;10593;48.398;10.698;2022-08-19T12:48:32;95831.50;;;26.06
20867;BMP280;10593;48.398;10.698;2022-08-19T12:50:59;95835.94;;;26.05
20867;BMP280;10593;48.398;10.698;2022-08-19T12:53:25;95836.06;;;26.04
20867;BMP280;10593;48.398;10.698;2022-08-19T12:55:58;95847.31;;;26.06
20867;BMP280;10593;48.398;10.698;2022-08-19T12:58:25;95837.72;;;26.05
20867;BMP280;10593;48.398;10.698;2022-08-19T13:00:51;95846.47;;;26.05
20867;BMP280;10593;48.398;10.698;2022-08-19T13:03:17;95846.47;;;26.05
20867;BMP280;10593;48.398;10.698;2022-08-19T13:05:43;95850.91;;;26.05
20867;BMP280;10593;48.398;10.698;2022-08-19T13:08:08;95857.84;;;26.06
20867;BMP280;10593;48.398;10.698;2022-08-19T13:10:35;95854.22;;;26.07
20867;BMP280;10593;48.398;10.698;2022-08-19T13:13:08;95856.75;;;26.08
20867;BMP280;10593;48.398;10.698;2022-08-19T13:15:39;95861.19;;;26.08
20867;BMP280;10593;48.398;10.698;2022-08-19T13:18:07;95861.19;;;26.08
20867;BMP280;10593;48.398;10.698;2022-08-19T13:20:36;95866.47;;;26.08
20867;BMP280;10593;48.398;10.698;2022-08-19T13:23:03;95867.16;;;26.10
20867;BMP280;10593;48.398;10.698;2022-08-19T13:25:29;95857.59;;;26.09
20867;BMP280;10593;48.398;10.698;2022-08-19T13:27:56;95854.81;;;26.10
20867;BMP280;10593;48.398;10.698;2022-08-19T13:30:22;95854.00;;;26.10
20867;BMP280;10593;48.398;10.698;2022-08-19T13:33:08;95850.50;;;26.09
20867;BMP280;10593;48.398;10.698;2022-08-19T13:35:50;95848.72;;;26.10
20867;BMP280;10593;48.398;10.698;2022-08-19T13:38:20;95847.06;;;26.09
20867;BMP280;10593;48.398;10.698;2022-08-19T13:40:47;95846.09;;;26.10
20867;BMP280;10593;48.398;10.698;2022-08-19T13:43:15;95844.44;;;26.09
20867;BMP280;10593;48.398;10.698;2022-08-19T13:45:42;95849.56;;;26.10
20867;BMP280;10593;48.398;10.698;2022-08-19T13:48:09;95844.44;;;26.09
20867;BMP280;10593;48.398;10.698;2022-08-19T13:50:41;95846.91;;;26.10
20867;BMP280;10593;48.398;10.698;2022-08-19T13:53:11;95850.50;;;26.09
20867;BMP280;10593;48.398;10.698;2022-08-19T13:55:42;95845.25;;;26.09
20867;BMP280;10593;48.398;10.698;2022-08-19T13:58:10;95848.72;;;26.10
20867;BMP280;10593;48.398;10.698;2022-08-19T14:00:42;95845.25;;;26.09
20867;BMP280;10593;48.398;10.698;2022-08-19T14:03:08;95851.47;;;26.08
20867;BMP280;10593;48.398;10.698;2022-08-19T14:05:34;95858.56;;;26.08
20867;BMP280;10593;48.398;10.698;2022-08-19T14:08:00;95860.34;;;26.07
20867;BMP280;10593;48.398;10.698;2022-08-19T14:10:27;95863.09;;;26.06
20867;BMP280;10593;48.398;10.698;2022-08-19T14:12:55;95863.09;;;26.06
20867;BMP280;10593;48.398;10.698;2022-08-19T14:15:24;95863.09;;;26.06
20867;BMP280;10593;48.398;10.698;2022-08-19T14:17:50;95861.44;;;26.05
20867;BMP280;10593;48.398;10.698;2022-08-19T14:20:17;95861.44;;;26.05
20867;BMP280;10593;48.398;10.698;2022-08-19T14:22:45;95861.44;;;26.05